createdAt,value
2018-12-17T00:04:21.189Z,72.00
2018-12-17T00:09:26.032Z,71.55
2018-12-17T00:14:29.042Z,72.23
2018-12-17T00:19:31.711Z,72.53
2018-12-17T00:24:34.595Z,71.94
2018-12-17T00:29:37.313Z,72.27
2018-12-17T00:34:40.292Z,72.35
2018-12-17T00:39:43.005Z,72.07
2018-12-17T00:44:45.777Z,72.46
2018-12-17T00:49:48.673Z,71.91
2018-12-17T00:54:51.455Z,71.82
2018-12-17T00:59:54.158Z,71.83
2018-12-17T01:04:56.953Z,71.93
2018-12-17T01:09:59.946Z,72.00
2018-12-17T01:15:04.172Z,71.98
2018-12-17T01:20:07.816Z,71.81
2018-12-17T01:25:10.766Z,71.83
2018-12-17T01:30:13.817Z,72.28
2018-12-17T01:35:16.632Z,71.77
2018-12-17T01:40:19.574Z,71.75
2018-12-17T01:45:22.597Z,72.36
2018-12-17T01:50:25.435Z,72.51
2018-12-17T01:55:28.213Z,71.49
2018-12-17T02:00:31.047Z,72.29
2018-12-17T02:05:33.901Z,71.77
2018-12-17T02:10:36.800Z,71.92
2018-12-17T02:15:40.373Z,71.94
2018-12-17T02:20:43.040Z,71.83
2018-12-17T02:25:45.962Z,71.93
2018-12-17T02:30:48.935Z,72.11
2018-12-17T02:35:51.669Z,72.48
2018-12-17T02:40:54.292Z,71.92
2018-12-17T02:45:57.131Z,72.66
2018-12-17T02:50:59.997Z,72.35
2018-12-17T02:56:03.070Z,72.26
2018-12-17T03:01:06.858Z,71.68
2018-12-17T03:06:11.032Z,72.08
2018-12-17T03:11:13.918Z,72.21
2018-12-17T03:16:16.616Z,72.13
2018-12-17T03:21:19.456Z,71.78
2018-12-17T03:26:22.591Z,72.31
2018-12-17T03:31:25.697Z,71.64
2018-12-17T03:36:28.664Z,71.37
2018-12-17T03:41:31.591Z,71.84
2018-12-17T03:46:34.640Z,71.94
2018-12-17T03:51:37.425Z,71.80
2018-12-17T03:56:40.566Z,71.43
2018-12-17T04:01:43.398Z,71.62
2018-12-17T04:06:46.285Z,71.15
2018-12-17T04:11:48.977Z,71.89
2018-12-17T04:16:51.764Z,71.21
2018-12-17T04:21:54.521Z,71.09
2018-12-17T04:26:58.213Z,70.91
2018-12-17T04:32:01.084Z,71.54
2018-12-17T04:37:04.322Z,71.43
2018-12-17T04:42:08.077Z,70.98
2018-12-17T04:47:10.973Z,71.57
2018-12-17T04:52:13.733Z,71.03
2018-12-17T04:57:16.606Z,71.58
2018-12-17T05:02:19.396Z,71.22
2018-12-17T05:07:22.540Z,71.23
2018-12-17T05:12:25.514Z,71.00
2018-12-17T05:17:28.277Z,71.11
2018-12-17T05:22:31.081Z,70.38
2018-12-17T05:27:33.952Z,70.37
2018-12-17T05:32:36.801Z,70.77
2018-12-17T05:37:39.571Z,70.58
2018-12-17T05:42:42.506Z,70.77
2018-12-17T05:47:45.336Z,70.97
2018-12-17T05:52:48.151Z,70.90
2018-12-17T05:57:50.759Z,70.40
2018-12-17T06:02:53.589Z,69.83
2018-12-17T06:07:56.329Z,70.09
2018-12-17T06:12:59.068Z,70.11
2018-12-17T06:18:02.054Z,70.85
2018-12-17T06:23:05.010Z,69.84
2018-12-17T06:28:08.106Z,70.76
2018-12-17T06:33:15.637Z,70.75
2018-12-17T06:38:16.888Z,70.56
2018-12-17T06:43:20.063Z,70.79
2018-12-17T06:48:22.963Z,70.56
2018-12-17T06:53:25.805Z,70.05
2018-12-17T06:58:29.397Z,71.07
2018-12-17T07:03:32.251Z,71.06
2018-12-17T07:08:35.078Z,71.03
2018-12-17T07:13:37.752Z,71.81
2018-12-17T07:18:40.465Z,71.88
2018-12-17T07:23:43.240Z,71.43
2018-12-17T07:28:45.984Z,71.91
2018-12-17T07:33:48.879Z,71.77
2018-12-17T07:38:52.020Z,72.09
2018-12-17T07:43:55.145Z,71.52
2018-12-17T07:48:58.133Z,71.71
2018-12-17T07:54:01.014Z,72.25
2018-12-17T07:59:03.893Z,72.02
2018-12-17T08:04:06.741Z,71.71
2018-12-17T08:09:09.609Z,71.22
2018-12-17T08:14:12.509Z,71.32
2018-12-17T08:19:15.216Z,71.13
2018-12-17T08:24:18.119Z,71.29
2018-12-17T08:29:20.913Z,71.29
2018-12-17T08:34:23.819Z,71.28
2018-12-17T08:39:26.650Z,70.93
2018-12-17T08:44:29.545Z,70.59
2018-12-17T08:49:32.597Z,71.46
2018-12-17T08:54:35.350Z,70.91
2018-12-17T08:59:38.002Z,70.42
2018-12-17T09:04:41.098Z,70.33
2018-12-17T09:09:44.071Z,70.74
2018-12-17T09:14:46.935Z,70.20
2018-12-17T09:19:49.726Z,70.76
2018-12-17T09:24:52.742Z,69.93
2018-12-17T09:29:55.648Z,69.72
2018-12-17T09:34:58.425Z,69.84
2018-12-17T09:40:01.554Z,70.10
2018-12-17T09:45:07.220Z,69.53
2018-12-17T09:50:10.079Z,69.60
2018-12-17T09:55:12.936Z,69.73
2018-12-17T10:00:15.829Z,68.93
2018-12-17T10:05:18.781Z,68.92
2018-12-17T10:10:21.836Z,69.01
2018-12-17T10:15:25.003Z,69.26
2018-12-17T10:20:27.881Z,69.08
2018-12-17T10:25:30.773Z,68.75
2018-12-17T10:30:33.575Z,68.87
2018-12-17T10:35:36.527Z,69.05
2018-12-17T10:40:39.573Z,68.59
2018-12-17T10:45:42.574Z,68.25
2018-12-17T10:50:45.690Z,68.66
2018-12-17T10:55:48.392Z,69.11
2018-12-17T11:00:57.127Z,69.03
2018-12-17T11:06:04.170Z,68.97
2018-12-17T11:11:07.165Z,68.83
2018-12-17T11:16:10.290Z,69.31
2018-12-17T11:21:13.004Z,69.05
2018-12-17T11:26:15.667Z,69.12
2018-12-17T11:31:18.523Z,68.91
2018-12-17T11:36:21.545Z,68.67
2018-12-17T11:41:24.308Z,69.10
2018-12-17T11:46:27.226Z,69.24
2018-12-17T11:51:30.194Z,68.81
2018-12-17T12:02:14.570Z,68.95
2018-12-17T12:07:17.402Z,68.66
2018-12-17T12:12:20.361Z,68.56
2018-12-17T12:17:23.341Z,68.20
2018-12-17T12:22:26.049Z,68.11
2018-12-17T12:27:29.455Z,67.47
2018-12-17T12:32:32.415Z,68.62
2018-12-17T12:37:35.532Z,68.79
2018-12-17T12:42:38.465Z,69.16
2018-12-17T12:47:41.401Z,68.90
2018-12-17T12:52:44.532Z,69.03
2018-12-17T12:57:47.434Z,69.36
2018-12-17T13:02:50.310Z,69.54
2018-12-17T13:07:53.106Z,69.75
2018-12-17T13:12:55.937Z,70.13
2018-12-17T13:17:59.538Z,70.11
2018-12-17T13:23:02.395Z,70.12
2018-12-17T13:28:05.404Z,70.34
2018-12-17T13:33:08.268Z,70.12
2018-12-17T13:38:11.316Z,70.52
2018-12-17T13:43:14.197Z,70.37
2018-12-17T13:53:31.708Z,70.59
2018-12-17T13:58:35.352Z,70.49
2018-12-17T14:03:38.225Z,70.59
2018-12-17T14:08:41.182Z,70.77
2018-12-17T14:13:44.194Z,70.68
2018-12-17T14:18:52.990Z,70.45
2018-12-17T14:23:55.847Z,70.59
2018-12-17T14:28:58.586Z,70.98
2018-12-17T14:34:01.411Z,71.12
2018-12-17T14:39:06.956Z,71.08
2018-12-17T14:44:17.566Z,70.83
2018-12-17T14:49:20.396Z,71.02
2018-12-17T14:54:23.362Z,71.33
2018-12-17T14:59:26.240Z,71.16
2018-12-17T15:04:29.302Z,71.43
2018-12-17T15:09:31.970Z,71.80
2018-12-17T15:14:34.584Z,71.38
2018-12-17T15:19:37.538Z,71.49
2018-12-17T15:24:40.699Z,71.62
2018-12-17T15:29:43.557Z,71.83
2018-12-17T15:34:46.251Z,71.91
2018-12-17T15:39:49.131Z,71.82
2018-12-17T15:44:55.482Z,71.70
2018-12-17T15:49:58.058Z,71.67
2018-12-17T15:55:02.488Z,71.79
2018-12-17T16:00:10.162Z,71.79
2018-12-17T16:05:13.025Z,71.85
2018-12-17T16:10:15.788Z,72.08
2018-12-17T16:15:18.649Z,71.84
2018-12-17T16:20:21.661Z,72.28
2018-12-17T16:25:24.846Z,72.15
2018-12-17T16:30:27.678Z,72.46
2018-12-17T16:35:30.517Z,72.71
2018-12-17T16:40:33.860Z,72.72
2018-12-17T16:45:37.029Z,73.10
2018-12-17T16:50:40.290Z,72.88
2018-12-17T16:55:44.505Z,73.22
2018-12-17T17:00:47.417Z,73.33
2018-12-17T17:05:50.393Z,73.49
2018-12-17T17:10:53.472Z,73.74
2018-12-17T17:15:56.661Z,73.72
2018-12-17T17:20:59.494Z,73.92
2018-12-17T17:26:02.589Z,73.68
2018-12-17T17:31:05.560Z,73.68
2018-12-17T17:36:08.477Z,73.63
2018-12-17T17:41:11.405Z,73.42
2018-12-17T17:46:14.154Z,73.41
2018-12-17T17:51:17.288Z,73.30
2018-12-17T17:56:20.201Z,73.21
2018-12-17T18:01:23.073Z,73.10
2018-12-17T18:06:25.923Z,73.16
2018-12-17T18:11:28.824Z,73.13
2018-12-17T18:16:31.870Z,73.31
2018-12-17T18:21:34.775Z,72.92
2018-12-17T18:26:37.619Z,72.78
2018-12-17T18:31:40.496Z,72.91
2018-12-17T18:36:43.682Z,73.17
2018-12-17T18:41:46.589Z,73.08
2018-12-17T18:46:52.513Z,72.78
2018-12-17T18:51:55.512Z,72.66
2018-12-17T18:57:01.470Z,72.65
2018-12-17T19:02:04.543Z,73.11
2018-12-17T19:07:07.493Z,72.90
2018-12-17T19:12:10.401Z,72.63
2018-12-17T19:17:13.516Z,72.56
2018-12-17T19:22:16.381Z,72.36
2018-12-17T19:27:19.525Z,72.40
2018-12-17T19:32:22.478Z,72.23
2018-12-17T19:37:25.410Z,72.07
2018-12-17T19:42:28.311Z,72.34
2018-12-17T19:47:31.197Z,72.44
2018-12-17T19:52:34.152Z,72.56
2018-12-17T19:57:37.116Z,71.95
2018-12-17T20:02:46.851Z,72.76
2018-12-17T20:07:44.938Z,72.30
2018-12-17T20:12:47.671Z,71.99
2018-12-17T20:17:50.518Z,72.05
2018-12-17T20:22:53.249Z,71.96
2018-12-17T20:27:55.914Z,72.13
2018-12-17T20:38:11.318Z,72.42
2018-12-17T20:43:14.089Z,72.36
2018-12-17T20:48:17.020Z,72.39
2018-12-17T20:53:20.209Z,72.26
2018-12-17T20:58:23.121Z,71.91
2018-12-17T21:03:26.014Z,72.27
2018-12-17T21:08:28.654Z,72.27
2018-12-17T21:13:31.545Z,72.18
2018-12-17T21:18:34.386Z,72.15
2018-12-17T21:23:37.580Z,72.13
2018-12-17T21:28:40.310Z,72.51
2018-12-17T21:33:43.023Z,72.38
2018-12-17T21:38:45.725Z,71.99
2018-12-17T21:43:48.719Z,72.16
2018-12-17T21:48:51.669Z,72.54
2018-12-17T21:53:54.438Z,72.51
2018-12-17T21:58:57.550Z,72.38
2018-12-17T22:04:00.376Z,72.74
2018-12-17T22:09:05.828Z,72.29
2018-12-17T22:14:10.676Z,72.48
2018-12-17T22:19:14.837Z,72.26
2018-12-17T22:24:17.846Z,72.34
2018-12-17T22:29:21.442Z,72.31
2018-12-17T22:34:25.334Z,72.20
2018-12-17T22:39:28.126Z,72.69
2018-12-17T22:44:31.183Z,72.30
2018-12-17T22:49:34.238Z,72.50
2018-12-17T22:54:37.094Z,72.59
2018-12-17T22:59:39.905Z,72.34
2018-12-17T23:04:42.765Z,72.57
2018-12-17T23:10:03.168Z,72.64
2018-12-17T23:15:23.541Z,72.90
2018-12-17T23:20:26.471Z,72.56
2018-12-17T23:25:31.503Z,72.59
2018-12-17T23:30:35.863Z,72.20
2018-12-17T23:35:38.687Z,72.50
2018-12-17T23:40:41.298Z,73.13
2018-12-17T23:45:51.171Z,73.27
2018-12-17T23:50:54.274Z,73.17
2018-12-17T23:55:57.127Z,73.62
